sensor_id;sensor_type;location;lat;lon;timestamp;pressure;altitude;pressure_sealevel;temperature;humidity
64644;BME280;51056;50.330;7.914;2023-05-27T00:00:50;101686.72;;;10.54;73.88
64644;BME280;51056;50.330;7.914;2023-05-27T00:03:53;101683.47;;;10.45;74.31
64644;BME280;51056;50.330;7.914;2023-05-27T00:06:55;101689.47;;;10.49;74.59
64644;BME280;51056;50.330;7.914;2023-05-27T00:09:58;101681.78;;;10.44;74.11
64644;BME280;51056;50.330;7.914;2023-05-27T00:13:02;101695.69;;;10.46;73.67
64644;BME280;51056;50.330;7.914;2023-05-27T00:16:06;101688.91;;;10.39;74.01
64644;BME280;51056;50.330;7.914;2023-05-27T00:19:10;101688.25;;;10.33;74.53
64644;BME280;51056;50.330;7.914;2023-05-27T00:22:13;101682.19;;;10.32;74.30
64644;BME280;51056;50.330;7.914;2023-05-27T00:25:16;101690.94;;;10.31;74.68
64644;BME280;51056;50.330;7.914;2023-05-27T00:28:23;101693.09;;;10.17;74.88
64644;BME280;51056;50.330;7.914;2023-05-27T00:31:26;101699.28;;;10.14;75.20
64644;BME280;51056;50.330;7.914;2023-05-27T00:34:30;101692.16;;;10.19;75.04
64644;BME280;51056;50.330;7.914;2023-05-27T00:37:34;101699.44;;;10.10;74.84
64644;BME280;51056;50.330;7.914;2023-05-27T00:40:37;101690.09;;;10.02;75.60
64644;BME280;51056;50.330;7.914;2023-05-27T00:43:41;101702.19;;;10.05;75.51
64644;BME280;51056;50.330;7.914;2023-05-27T00:46:45;101702.31;;;10.00;75.23
64644;BME280;51056;50.330;7.914;2023-05-27T00:49:49;101700.75;;;9.95;75.38
64644;BME280;51056;50.330;7.914;2023-05-27T00:52:53;101707.75;;;9.94;75.51
64644;BME280;51056;50.330;7.914;2023-05-27T00:55:58;101701.25;;;9.80;75.69
64644;BME280;51056;50.330;7.914;2023-05-27T00:59:03;101708.19;;;9.79;75.82
64644;BME280;51056;50.330;7.914;2023-05-27T01:02:06;101703.38;;;9.67;76.65
64644;BME280;51056;50.330;7.914;2023-05-27T01:05:10;101710.13;;;9.74;76.59
64644;BME280;51056;50.330;7.914;2023-05-27T01:08:58;101699.84;;;9.68;76.48
64644;BME280;51056;50.330;7.914;2023-05-27T01:11:43;101704.25;;;9.66;76.60
64644;BME280;51056;50.330;7.914;2023-05-27T01:14:46;101701.72;;;9.63;76.65
64644;BME280;51056;50.330;7.914;2023-05-27T01:17:53;101703.47;;;9.64;76.17
64644;BME280;51056;50.330;7.914;2023-05-27T01:21:03;101699.28;;;9.57;76.56
64644;BME280;51056;50.330;7.914;2023-05-27T01:24:08;101693.53;;;9.45;77.26
64644;BME280;51056;50.330;7.914;2023-05-27T01:27:13;101693.56;;;9.44;77.57
64644;BME280;51056;50.330;7.914;2023-05-27T01:30:19;101697.31;;;9.35;77.29
64644;BME280;51056;50.330;7.914;2023-05-27T01:33:23;101692.03;;;9.38;77.48
64644;BME280;51056;50.330;7.914;2023-05-27T01:36:30;101688.41;;;9.42;77.09
64644;BME280;51056;50.330;7.914;2023-05-27T01:39:34;101691.13;;;9.38;77.28
64644;BME280;51056;50.330;7.914;2023-05-27T01:42:38;101691.44;;;9.28;77.29
64644;BME280;51056;50.330;7.914;2023-05-27T01:45:42;101684.47;;;9.27;77.34
64644;BME280;51056;50.330;7.914;2023-05-27T01:48:45;101677.56;;;9.26;77.48
64644;BME280;51056;50.330;7.914;2023-05-27T01:51:49;101674.88;;;9.28;77.65
64644;BME280;51056;50.330;7.914;2023-05-27T01:54:52;101675.34;;;9.13;77.99
64644;BME280;51056;50.330;7.914;2023-05-27T01:57:54;101677.03;;;9.14;77.54
64644;BME280;51056;50.330;7.914;2023-05-27T02:00:58;101672.72;;;9.13;77.57
64644;BME280;51056;50.330;7.914;2023-05-27T02:04:01;101682.69;;;8.98;78.08
64644;BME280;51056;50.330;7.914;2023-05-27T02:07:04;101671.41;;;8.96;78.09
64644;BME280;51056;50.330;7.914;2023-05-27T02:10:07;101667.94;;;8.96;78.50
64644;BME280;51056;50.330;7.914;2023-05-27T02:13:10;101670.63;;;8.94;78.39
64644;BME280;51056;50.330;7.914;2023-05-27T02:16:14;101663.66;;;8.95;78.26
64644;BME280;51056;50.330;7.914;2023-05-27T02:19:17;101670.63;;;8.94;78.43
64644;BME280;51056;50.330;7.914;2023-05-27T02:22:23;101666.84;;;9.04;77.72
64644;BME280;51056;50.330;7.914;2023-05-27T02:25:26;101672.47;;;8.89;78.00
64644;BME280;51056;50.330;7.914;2023-05-27T02:28:29;101667.34;;;8.86;78.12
64644;BME280;51056;50.330;7.914;2023-05-27T02:31:32;101662.06;;;8.89;77.97
64644;BME280;51056;50.330;7.914;2023-05-27T02:34:35;101663.06;;;8.83;78.06
64644;BME280;51056;50.330;7.914;2023-05-27T02:37:40;101669.88;;;8.89;77.59
64644;BME280;51056;50.330;7.914;2023-05-27T02:40:43;101670.19;;;8.78;78.01
64644;BME280;51056;50.330;7.914;2023-05-27T02:43:46;101674.94;;;8.63;78.74
64644;BME280;51056;50.330;7.914;2023-05-27T02:46:49;101672.34;;;8.61;78.75
64644;BME280;51056;50.330;7.914;2023-05-27T02:49:52;101668.09;;;8.58;79.00
64644;BME280;51056;50.330;7.914;2023-05-27T02:52:55;101662.97;;;8.55;79.05
64644;BME280;51056;50.330;7.914;2023-05-27T02:55:58;101659.22;;;8.66;78.71
64644;BME280;51056;50.330;7.914;2023-05-27T02:59:02;101665.41;;;8.61;78.91
64644;BME280;51056;50.330;7.914;2023-05-27T03:02:05;101674.03;;;8.64;78.73
64644;BME280;51056;50.330;7.914;2023-05-27T03:05:09;101669.13;;;8.51;78.62
64644;BME280;51056;50.330;7.914;2023-05-27T03:08:13;101662.53;;;8.36;79.29
64644;BME280;51056;50.330;7.914;2023-05-27T03:11:16;101672.63;;;8.50;79.03
64644;BME280;51056;50.330;7.914;2023-05-27T03:14:19;101670.50;;;8.65;77.84
64644;BME280;51056;50.330;7.914;2023-05-27T03:17:21;101672.69;;;8.49;78.47
64644;BME280;51056;50.330;7.914;2023-05-27T03:20:24;101674.31;;;8.53;78.29
64644;BME280;51056;50.330;7.914;2023-05-27T03:23:27;101679.22;;;8.65;77.98
64644;BME280;51056;50.330;7.914;2023-05-27T03:26:30;101673.75;;;8.40;78.69
64644;BME280;51056;50.330;7.914;2023-05-27T03:29:35;101673.63;;;8.45;78.83
64644;BME280;51056;50.330;7.914;2023-05-27T03:32:39;101676.41;;;8.37;78.80
64644;BME280;51056;50.330;7.914;2023-05-27T03:35:42;101661.75;;;8.33;79.24
64644;BME280;51056;50.330;7.914;2023-05-27T03:38:45;101665.66;;;8.52;78.53
64644;BME280;51056;50.330;7.914;2023-05-27T03:41:49;101664.59;;;8.24;78.92
64644;BME280;51056;50.330;7.914;2023-05-27T03:44:53;101660.00;;;8.33;79.22
64644;BME280;51056;50.330;7.914;2023-05-27T03:47:56;101662.50;;;8.38;78.71
64644;BME280;51056;50.330;7.914;2023-05-27T03:50:59;101667.19;;;8.24;79.43
64644;BME280;51056;50.330;7.914;2023-05-27T03:54:03;101668.19;;;8.18;80.03
64644;BME280;51056;50.330;7.914;2023-05-27T03:57:08;101670.53;;;8.29;79.39
64644;BME280;51056;50.330;7.914;2023-05-27T04:00:11;101670.66;;;8.23;79.52
64644;BME280;51056;50.330;7.914;2023-05-27T04:03:24;101671.63;;;8.20;80.03
64644;BME280;51056;50.330;7.914;2023-05-27T04:06:28;101669.88;;;8.19;79.87
64644;BME280;51056;50.330;7.914;2023-05-27T04:09:31;101666.56;;;8.12;80.26
64644;BME280;51056;50.330;7.914;2023-05-27T04:12:35;101672.06;;;8.00;80.95
64644;BME280;51056;50.330;7.914;2023-05-27T04:15:38;101671.06;;;8.07;80.87
64644;BME280;51056;50.330;7.914;2023-05-27T04:18:41;101660.38;;;8.16;80.52
64644;BME280;51056;50.330;7.914;2023-05-27T04:21:45;101674.66;;;8.37;79.15
64644;BME280;51056;50.330;7.914;2023-05-27T04:24:50;101668.06;;;8.23;80.15
64644;BME280;51056;50.330;7.914;2023-05-27T04:27:55;101677.41;;;8.33;79.83
64644;BME280;51056;50.330;7.914;2023-05-27T04:30:58;101673.28;;;8.23;80.63
64644;BME280;51056;50.330;7.914;2023-05-27T04:34:09;101677.13;;;8.06;81.99
64644;BME280;51056;50.330;7.914;2023-05-27T04:37:13;101683.88;;;8.15;81.82
64644;BME280;51056;50.330;7.914;2023-05-27T04:40:16;101678.53;;;8.21;81.71
64644;BME280;51056;50.330;7.914;2023-05-27T04:43:48;101676.16;;;8.49;80.49
64644;BME280;51056;50.330;7.914;2023-05-27T04:46:55;101680.53;;;8.47;80.27
64644;BME280;51056;50.330;7.914;2023-05-27T04:49:58;101681.78;;;8.67;79.92
64644;BME280;51056;50.330;7.914;2023-05-27T04:53:03;101678.69;;;8.52;80.52
64644;BME280;51056;50.330;7.914;2023-05-27T04:56:06;101672.47;;;8.56;80.40
64644;BME280;51056;50.330;7.914;2023-05-27T04:59:12;101679.25;;;8.64;80.19
64644;BME280;51056;50.330;7.914;2023-05-27T05:02:19;101684.47;;;8.64;80.65
64644;BME280;51056;50.330;7.914;2023-05-27T05:05:39;101683.81;;;8.55;81.38
64644;BME280;51056;50.330;7.914;2023-05-27T05:08:42;101679.84;;;8.75;80.92
64644;BME280;51056;50.330;7.914;2023-05-27T05:11:45;101673.22;;;8.94;80.47
64644;BME280;51056;50.330;7.914;2023-05-27T05:14:50;101683.28;;;9.08;79.83
64644;BME280;51056;50.330;7.914;2023-05-27T05:17:53;101679.91;;;9.04;79.48
64644;BME280;51056;50.330;7.914;2023-05-27T05:20:56;101675.78;;;9.27;78.65
64644;BME280;51056;50.330;7.914;2023-05-27T05:24:08;101678.06;;;9.39;78.07
64644;BME280;51056;50.330;7.914;2023-05-27T05:27:11;101676.28;;;9.41;77.73
64644;BME280;51056;50.330;7.914;2023-05-27T05:30:15;101679.41;;;9.52;77.27
64644;BME280;51056;50.330;7.914;2023-05-27T05:33:18;101672.47;;;9.51;77.63
64644;BME280;51056;50.330;7.914;2023-05-27T05:36:22;101673.84;;;9.63;77.05
64644;BME280;51056;50.330;7.914;2023-05-27T05:39:36;101672.41;;;9.54;78.48
64644;BME280;51056;50.330;7.914;2023-05-27T05:42:39;101680.84;;;9.63;78.29
64644;BME280;51056;50.330;7.914;2023-05-27T05:45:43;101678.50;;;9.83;78.18
64644;BME280;51056;50.330;7.914;2023-05-27T05:48:46;101673.00;;;9.92;78.18
64644;BME280;51056;50.330;7.914;2023-05-27T05:51:54;101673.50;;;10.04;78.13
64644;BME280;51056;50.330;7.914;2023-05-27T05:54:57;101669.53;;;10.18;77.80
64644;BME280;51056;50.330;7.914;2023-05-27T05:58:01;101668.38;;;10.29;77.54
64644;BME280;51056;50.330;7.914;2023-05-27T06:01:04;101668.91;;;10.38;77.33
64644;BME280;51056;50.330;7.914;2023-05-27T06:04:14;101672.06;;;10.48;77.94
64644;BME280;51056;50.330;7.914;2023-05-27T06:07:20;101670.72;;;10.63;77.60
64644;BME280;51056;50.330;7.914;2023-05-27T06:10:36;101665.94;;;10.74;77.43
64644;BME280;51056;50.330;7.914;2023-05-27T06:13:39;101664.69;;;10.86;77.11
64644;BME280;51056;50.330;7.914;2023-05-27T06:16:45;101665.66;;;11.07;76.69
64644;BME280;51056;50.330;7.914;2023-05-27T06:19:50;101668.53;;;11.24;75.54
64644;BME280;51056;50.330;7.914;2023-05-27T06:22:53;101668.84;;;11.38;75.28
64644;BME280;51056;50.330;7.914;2023-05-27T06:26:03;101666.13;;;11.41;74.03
64644;BME280;51056;50.330;7.914;2023-05-27T06:29:11;101660.78;;;11.45;71.98
64644;BME280;51056;50.330;7.914;2023-05-27T06:32:14;101660.94;;;11.63;71.57
64644;BME280;51056;50.330;7.914;2023-05-27T06:35:19;101661.19;;;11.79;70.67
64644;BME280;51056;50.330;7.914;2023-05-27T06:38:23;101654.66;;;11.91;70.04
64644;BME280;51056;50.330;7.914;2023-05-27T06:41:28;101651.94;;;11.93;69.75
64644;BME280;51056;50.330;7.914;2023-05-27T06:44:55;101641.06;;;12.03;70.07
64644;BME280;51056;50.330;7.914;2023-05-27T06:48:01;101635.75;;;12.05;69.08
64644;BME280;51056;50.330;7.914;2023-05-27T06:51:05;101633.53;;;12.16;68.19
64644;BME280;51056;50.330;7.914;2023-05-27T06:54:08;101635.00;;;12.23;68.11
64644;BME280;51056;50.330;7.914;2023-05-27T06:57:18;101636.94;;;12.18;68.14
64644;BME280;51056;50.330;7.914;2023-05-27T07:00:39;101632.16;;;12.28;67.72
64644;BME280;51056;50.330;7.914;2023-05-27T07:04:01;101627.84;;;12.47;67.23
64644;BME280;51056;50.330;7.914;2023-05-27T07:07:23;101622.91;;;12.60;67.04
64644;BME280;51056;50.330;7.914;2023-05-27T07:10:26;101622.53;;;12.69;66.14
64644;BME280;51056;50.330;7.914;2023-05-27T07:13:29;101620.97;;;12.65;65.07
64644;BME280;51056;50.330;7.914;2023-05-27T07:16:31;101618.88;;;12.73;65.23
64644;BME280;51056;50.330;7.914;2023-05-27T07:19:35;101609.53;;;12.87;65.52
64644;BME280;51056;50.330;7.914;2023-05-27T07:22:43;101615.50;;;12.90;65.02
64644;BME280;51056;50.330;7.914;2023-05-27T07:25:46;101615.94;;;13.00;65.29
64644;BME280;51056;50.330;7.914;2023-05-27T07:28:49;101609.63;;;13.04;64.53
64644;BME280;51056;50.330;7.914;2023-05-27T07:32:10;101604.88;;;13.12;64.54
64644;BME280;51056;50.330;7.914;2023-05-27T07:35:13;101599.59;;;13.33;66.75
64644;BME280;51056;50.330;7.914;2023-05-27T07:38:18;101596.25;;;13.48;65.52
64644;BME280;51056;50.330;7.914;2023-05-27T07:41:21;101595.81;;;13.57;65.24
64644;BME280;51056;50.330;7.914;2023-05-27T07:44:25;101588.19;;;13.70;65.07
64644;BME280;51056;50.330;7.914;2023-05-27T07:47:32;101581.53;;;13.80;65.13
64644;BME280;51056;50.330;7.914;2023-05-27T07:50:35;101583.50;;;13.94;63.69
64644;BME280;51056;50.330;7.914;2023-05-27T07:53:42;101580.88;;;14.11;63.81
64644;BME280;51056;50.330;7.914;2023-05-27T07:56:45;101570.06;;;14.17;63.53
64644;BME280;51056;50.330;7.914;2023-05-27T07:59:48;101568.97;;;14.22;62.74
64644;BME280;51056;50.330;7.914;2023-05-27T08:02:52;101576.53;;;14.28;61.15
64644;BME280;51056;50.330;7.914;2023-05-27T08:05:59;101569.13;;;14.36;61.43
64644;BME280;51056;50.330;7.914;2023-05-27T08:09:20;101561.66;;;14.44;60.91
64644;BME280;51056;50.330;7.914;2023-05-27T08:12:49;101552.84;;;14.62;61.33
64644;BME280;51056;50.330;7.914;2023-05-27T08:16:05;101548.63;;;14.76;60.13
64644;BME280;51056;50.330;7.914;2023-05-27T08:19:20;101542.88;;;14.85;59.88
64644;BME280;51056;50.330;7.914;2023-05-27T08:22:32;101541.03;;;14.87;58.48
64644;BME280;51056;50.330;7.914;2023-05-27T08:25:48;101537.78;;;14.98;57.77
64644;BME280;51056;50.330;7.914;2023-05-27T08:29:10;101538.13;;;15.07;59.34
64644;BME280;51056;50.330;7.914;2023-05-27T08:32:33;101530.41;;;15.20;57.71
64644;BME280;51056;50.330;7.914;2023-05-27T08:35:36;101522.06;;;15.28;58.20
64644;BME280;51056;50.330;7.914;2023-05-27T08:38:40;101515.94;;;15.43;57.29
64644;BME280;51056;50.330;7.914;2023-05-27T08:41:53;101516.53;;;15.48;56.38
64644;BME280;51056;50.330;7.914;2023-05-27T08:44:56;101507.50;;;15.52;57.06
64644;BME280;51056;50.330;7.914;2023-05-27T08:48:00;101505.34;;;15.59;56.37
64644;BME280;51056;50.330;7.914;2023-05-27T08:51:14;101496.66;;;15.73;55.30
64644;BME280;51056;50.330;7.914;2023-05-27T08:54:19;101494.13;;;15.71;54.61
64644;BME280;51056;50.330;7.914;2023-05-27T08:57:29;101493.59;;;15.80;53.68
64644;BME280;51056;50.330;7.914;2023-05-27T09:00:33;101495.97;;;15.85;54.60
64644;BME280;51056;50.330;7.914;2023-05-27T09:03:52;101486.75;;;15.92;53.35
64644;BME280;51056;50.330;7.914;2023-05-27T09:06:57;101480.91;;;16.01;53.49
64644;BME280;51056;50.330;7.914;2023-05-27T09:10:00;101481.78;;;16.02;52.73
64644;BME280;51056;50.330;7.914;2023-05-27T09:13:02;101479.53;;;16.39;52.54
64644;BME280;51056;50.330;7.914;2023-05-27T09:16:05;101477.19;;;16.34;52.67
64644;BME280;51056;50.330;7.914;2023-05-27T09:19:18;101470.00;;;16.36;52.03
64644;BME280;51056;50.330;7.914;2023-05-27T09:22:22;101471.44;;;16.56;52.13
64644;BME280;51056;50.330;7.914;2023-05-27T09:25:26;101465.97;;;16.59;51.54
64644;BME280;51056;50.330;7.914;2023-05-27T09:28:30;101467.00;;;16.57;51.93
64644;BME280;51056;50.330;7.914;2023-05-27T09:31:40;101457.00;;;16.76;52.16
64644;BME280;51056;50.330;7.914;2023-05-27T09:34:45;101453.94;;;16.96;51.58
64644;BME280;51056;50.330;7.914;2023-05-27T09:37:48;101448.16;;;17.04;51.02
64644;BME280;51056;50.330;7.914;2023-05-27T09:40:54;101448.44;;;17.00;51.02
64644;BME280;51056;50.330;7.914;2023-05-27T09:43:57;101449.09;;;17.03;50.70
64644;BME280;51056;50.330;7.914;2023-05-27T09:47:01;101436.25;;;17.11;51.23
64644;BME280;51056;50.330;7.914;2023-05-27T09:50:05;101447.25;;;17.18;51.49
64644;BME280;51056;50.330;7.914;2023-05-27T09:53:11;101440.53;;;17.27;50.08
64644;BME280;51056;50.330;7.914;2023-05-27T09:56:15;101438.44;;;17.44;49.47
64644;BME280;51056;50.330;7.914;2023-05-27T09:59:18;101431.69;;;17.40;49.11
64644;BME280;51056;50.330;7.914;2023-05-27T10:02:21;101436.34;;;17.50;49.60
64644;BME280;51056;50.330;7.914;2023-05-27T10:05:25;101431.53;;;17.69;49.58
64644;BME280;51056;50.330;7.914;2023-05-27T10:08:29;101418.63;;;17.64;48.36
64644;BME280;51056;50.330;7.914;2023-05-27T10:11:33;101416.41;;;17.71;49.06
64644;BME280;51056;50.330;7.914;2023-05-27T10:14:43;101418.00;;;17.86;48.74
64644;BME280;51056;50.330;7.914;2023-05-27T10:17:53;101404.78;;;17.99;48.08
64644;BME280;51056;50.330;7.914;2023-05-27T10:20:59;101401.09;;;18.02;47.77
64644;BME280;51056;50.330;7.914;2023-05-27T10:24:03;101397.16;;;18.07;48.58
64644;BME280;51056;50.330;7.914;2023-05-27T10:27:07;101395.78;;;18.02;47.04
64644;BME280;51056;50.330;7.914;2023-05-27T10:30:14;101384.78;;;17.95;47.08
64644;BME280;51056;50.330;7.914;2023-05-27T10:33:29;101391.03;;;18.20;47.21
64644;BME280;51056;50.330;7.914;2023-05-27T10:36:33;101382.22;;;18.32;46.57
64644;BME280;51056;50.330;7.914;2023-05-27T10:39:37;101384.84;;;18.45;46.31
64644;BME280;51056;50.330;7.914;2023-05-27T10:42:40;101377.28;;;18.51;47.27
64644;BME280;51056;50.330;7.914;2023-05-27T10:45:43;101373.91;;;18.49;46.53
64644;BME280;51056;50.330;7.914;2023-05-27T10:48:47;101375.88;;;18.58;46.55
64644;BME280;51056;50.330;7.914;2023-05-27T10:51:49;101370.75;;;18.68;45.83
64644;BME280;51056;50.330;7.914;2023-05-27T10:54:53;101361.56;;;18.74;45.50
64644;BME280;51056;50.330;7.914;2023-05-27T10:57:58;101358.94;;;18.61;45.01
64644;BME280;51056;50.330;7.914;2023-05-27T11:01:01;101348.06;;;19.01;44.22
64644;BME280;51056;50.330;7.914;2023-05-27T11:04:09;101340.22;;;18.99;43.70
64644;BME280;51056;50.330;7.914;2023-05-27T11:07:12;101347.59;;;19.07;43.23
64644;BME280;51056;50.330;7.914;2023-05-27T11:10:19;101349.47;;;19.18;43.04
64644;BME280;51056;50.330;7.914;2023-05-27T11:13:22;101338.78;;;19.31;42.13
64644;BME280;51056;50.330;7.914;2023-05-27T11:16:34;101335.28;;;19.41;43.17
64644;BME280;51056;50.330;7.914;2023-05-27T11:19:38;101333.22;;;19.34;43.80
64644;BME280;51056;50.330;7.914;2023-05-27T11:22:48;101334.44;;;19.41;42.69
64644;BME280;51056;50.330;7.914;2023-05-27T11:25:51;101318.53;;;19.41;44.23
64644;BME280;51056;50.330;7.914;2023-05-27T11:28:58;101313.00;;;19.44;43.73
64644;BME280;51056;50.330;7.914;2023-05-27T11:32:01;101307.94;;;19.52;44.00
64644;BME280;51056;50.330;7.914;2023-05-27T11:35:12;101311.56;;;19.51;44.72
64644;BME280;51056;50.330;7.914;2023-05-27T11:38:16;101301.59;;;19.66;43.64
64644;BME280;51056;50.330;7.914;2023-05-27T11:41:20;101301.81;;;19.96;43.36
64644;BME280;51056;50.330;7.914;2023-05-27T11:44:25;101297.72;;;19.92;43.49
64644;BME280;51056;50.330;7.914;2023-05-27T11:47:28;101291.94;;;19.87;42.52
64644;BME280;51056;50.330;7.914;2023-05-27T11:50:31;101289.09;;;20.23;43.43
64644;BME280;51056;50.330;7.914;2023-05-27T11:53:35;101277.44;;;20.14;42.68
64644;BME280;51056;50.330;7.914;2023-05-27T11:56:42;101287.22;;;20.13;41.88
64644;BME280;51056;50.330;7.914;2023-05-27T11:59:45;101280.19;;;20.24;41.99
64644;BME280;51056;50.330;7.914;2023-05-27T12:02:48;101276.06;;;20.31;42.20
64644;BME280;51056;50.330;7.914;2023-05-27T12:05:51;101266.34;;;20.41;41.49
64644;BME280;51056;50.330;7.914;2023-05-27T12:08:54;101273.09;;;20.45;41.61
64644;BME280;51056;50.330;7.914;2023-05-27T12:11:57;101265.34;;;20.64;40.32
64644;BME280;51056;50.330;7.914;2023-05-27T12:15:01;101261.25;;;20.60;39.57
64644;BME280;51056;50.330;7.914;2023-05-27T12:18:04;101262.09;;;20.61;39.24
64644;BME280;51056;50.330;7.914;2023-05-27T12:21:07;101257.09;;;20.67;39.90
64644;BME280;51056;50.330;7.914;2023-05-27T12:24:11;101251.03;;;20.77;40.58
64644;BME280;51056;50.330;7.914;2023-05-27T12:27:14;101248.91;;;20.92;41.10
64644;BME280;51056;50.330;7.914;2023-05-27T12:30:18;101244.22;;;21.05;38.57
64644;BME280;51056;50.330;7.914;2023-05-27T12:33:22;101242.03;;;21.10;39.22
64644;BME280;51056;50.330;7.914;2023-05-27T12:36:25;101216.63;;;21.27;39.43
64644;BME280;51056;50.330;7.914;2023-05-27T12:39:28;101225.97;;;21.42;39.13
64644;BME280;51056;50.330;7.914;2023-05-27T12:42:32;101228.41;;;21.55;38.53
64644;BME280;51056;50.330;7.914;2023-05-27T12:45:35;101211.16;;;21.49;37.23
64644;BME280;51056;50.330;7.914;2023-05-27T12:48:41;101216.44;;;21.80;38.09
64644;BME280;51056;50.330;7.914;2023-05-27T12:51:44;101219.16;;;21.99;36.41
64644;BME280;51056;50.330;7.914;2023-05-27T12:54:47;101212.72;;;22.12;36.57
64644;BME280;51056;50.330;7.914;2023-05-27T12:57:50;101208.41;;;22.20;36.42
64644;BME280;51056;50.330;7.914;2023-05-27T13:00:53;101203.50;;;22.45;36.96
64644;BME280;51056;50.330;7.914;2023-05-27T13:03:57;101193.28;;;22.40;35.84
64644;BME280;51056;50.330;7.914;2023-05-27T13:06:59;101187.50;;;22.55;35.89
64644;BME280;51056;50.330;7.914;2023-05-27T13:10:03;101188.88;;;22.78;35.99
64644;BME280;51056;50.330;7.914;2023-05-27T13:13:06;101186.50;;;22.94;35.81
64644;BME280;51056;50.330;7.914;2023-05-27T13:16:09;101192.84;;;23.31;34.46
64644;BME280;51056;50.330;7.914;2023-05-27T13:19:12;101187.94;;;23.26;34.52
64644;BME280;51056;50.330;7.914;2023-05-27T13:22:15;101178.75;;;23.38;32.98
64644;BME280;51056;50.330;7.914;2023-05-27T13:25:18;101172.38;;;23.49;33.49
64644;BME280;51056;50.330;7.914;2023-05-27T13:28:22;101169.63;;;23.69;33.44
64644;BME280;51056;50.330;7.914;2023-05-27T13:31:25;101164.97;;;23.43;33.44
64644;BME280;51056;50.330;7.914;2023-05-27T13:34:28;101164.78;;;23.82;33.53
64644;BME280;51056;50.330;7.914;2023-05-27T13:37:32;101154.88;;;24.10;32.81
64644;BME280;51056;50.330;7.914;2023-05-27T13:40:35;101158.44;;;24.36;32.85
64644;BME280;51056;50.330;7.914;2023-05-27T13:43:38;101154.97;;;24.62;32.45
64644;BME280;51056;50.330;7.914;2023-05-27T13:46:41;101150.38;;;24.28;31.48
64644;BME280;51056;50.330;7.914;2023-05-27T13:49:43;101144.06;;;24.37;32.09
64644;BME280;51056;50.330;7.914;2023-05-27T13:52:46;101132.66;;;24.45;30.77
64644;BME280;51056;50.330;7.914;2023-05-27T13:55:49;101123.38;;;24.83;29.31
64644;BME280;51056;50.330;7.914;2023-05-27T13:58:52;101125.19;;;25.43;30.05
64644;BME280;51056;50.330;7.914;2023-05-27T14:01:56;101122.91;;;25.22;29.40
64644;BME280;51056;50.330;7.914;2023-05-27T14:04:59;101119.84;;;25.51;29.14
64644;BME280;51056;50.330;7.914;2023-05-27T14:08:03;101107.72;;;25.90;28.63
64644;BME280;51056;50.330;7.914;2023-05-27T14:11:07;101115.75;;;26.31;28.38
64644;BME280;51056;50.330;7.914;2023-05-27T14:14:10;101103.25;;;26.95;26.68
64644;BME280;51056;50.330;7.914;2023-05-27T14:17:16;101106.03;;;28.79;25.31
64644;BME280;51056;50.330;7.914;2023-05-27T14:20:19;101101.16;;;31.04;22.98
64644;BME280;51056;50.330;7.914;2023-05-27T14:23:22;101099.53;;;31.84;21.09
64644;BME280;51056;50.330;7.914;2023-05-27T14:26:25;101093.34;;;32.37;21.71
64644;BME280;51056;50.330;7.914;2023-05-27T14:29:29;101085.97;;;34.31;18.60
64644;BME280;51056;50.330;7.914;2023-05-27T14:32:32;101089.88;;;33.46;18.88
64644;BME280;51056;50.330;7.914;2023-05-27T14:35:36;101077.44;;;34.45;18.07
64644;BME280;51056;50.330;7.914;2023-05-27T14:38:39;101074.50;;;34.72;17.62
64644;BME280;51056;50.330;7.914;2023-05-27T14:41:42;101072.91;;;34.21;17.84
64644;BME280;51056;50.330;7.914;2023-05-27T14:44:45;101063.47;;;34.67;16.82
64644;BME280;51056;50.330;7.914;2023-05-27T14:47:48;101057.59;;;35.49;16.46
64644;BME280;51056;50.330;7.914;2023-05-27T14:50:52;101065.09;;;35.23;17.09
64644;BME280;51056;50.330;7.914;2023-05-27T14:53:55;101064.78;;;35.13;16.58
64644;BME280;51056;50.330;7.914;2023-05-27T14:56:58;101054.78;;;36.44;16.12
64644;BME280;51056;50.330;7.914;2023-05-27T15:00:01;101051.75;;;35.63;16.24
64644;BME280;51056;50.330;7.914;2023-05-27T15:03:05;101053.63;;;35.03;16.53
64644;BME280;51056;50.330;7.914;2023-05-27T15:06:08;101041.00;;;34.78;16.56
64644;BME280;51056;50.330;7.914;2023-05-27T15:09:11;101052.34;;;35.66;16.59
64644;BME280;51056;50.330;7.914;2023-05-27T15:12:14;101048.63;;;36.02;16.12
64644;BME280;51056;50.330;7.914;2023-05-27T15:15:18;101054.78;;;34.77;16.86
64644;BME280;51056;50.330;7.914;2023-05-27T15:18:23;101051.25;;;35.25;16.43
64644;BME280;51056;50.330;7.914;2023-05-27T15:21:26;101043.22;;;35.60;16.19
64644;BME280;51056;50.330;7.914;2023-05-27T15:24:28;101047.09;;;34.30;16.92
64644;BME280;51056;50.330;7.914;2023-05-27T15:27:31;101037.81;;;35.30;16.18
64644;BME280;51056;50.330;7.914;2023-05-27T15:30:34;101038.06;;;36.64;15.12
64644;BME280;51056;50.330;7.914;2023-05-27T15:33:37;101033.00;;;35.44;16.85
64644;BME280;51056;50.330;7.914;2023-05-27T15:36:40;101037.50;;;35.50;16.74
64644;BME280;51056;50.330;7.914;2023-05-27T15:39:43;101034.16;;;35.48;16.44
64644;BME280;51056;50.330;7.914;2023-05-27T15:42:47;101033.31;;;35.35;16.46
64644;BME280;51056;50.330;7.914;2023-05-27T15:45:50;101028.97;;;34.67;16.42
64644;BME280;51056;50.330;7.914;2023-05-27T15:48:53;101022.22;;;34.33;16.98
64644;BME280;51056;50.330;7.914;2023-05-27T15:51:57;101017.88;;;34.51;17.10
64644;BME280;51056;50.330;7.914;2023-05-27T15:55:00;101012.38;;;35.24;16.33
64644;BME280;51056;50.330;7.914;2023-05-27T15:58:02;101004.69;;;35.86;16.00
64644;BME280;51056;50.330;7.914;2023-05-27T16:01:05;101004.81;;;35.80;15.82
64644;BME280;51056;50.330;7.914;2023-05-27T16:04:09;100999.75;;;34.81;20.30
64644;BME280;51056;50.330;7.914;2023-05-27T16:07:13;100994.41;;;33.69;18.76
64644;BME280;51056;50.330;7.914;2023-05-27T16:10:18;100994.97;;;32.76;19.22